Time;durP1;ratioP1;P1;durP2;ratioP2;P2;SDS_P1;SDS_P2;PMS_P1;PMS_P2;Temp;Humidity;BMP_temperature;BMP_pressure;BME280_temperature;BME280_humidity;BME280_pressure;Samples;Min_cycle;Max_cycle;Signal;HPM_P1;HPM_P2
2022/10/05 00:01:52;;;;;;;6.10;5.50;;;;;;;10.64;100.00;98629.81;5074011;28;20224;-71
2022/10/05 00:04:27;;;;;;;6.67;5.50;;;;;;;10.63;100.00;98633.47;5073676;28;20196;-71
2022/10/05 00:07:12;;;;;;;6.10;5.40;;;;;;;10.61;100.00;98635.50;5073887;28;20208;-71
2022/10/05 00:09:38;;;;;;;6.80;5.23;;;;;;;10.55;100.00;98639.00;5073877;28;20232;-71
2022/10/05 00:12:19;;;;;;;8.43;5.63;;;;;;;10.51;100.00;98640.44;5073866;28;20212;-71
2022/10/05 00:14:50;;;;;;;7.73;5.50;;;;;;;10.51;100.00;98635.13;5073776;28;20664;-71
2022/10/05 00:17:21;;;;;;;8.70;5.97;;;;;;;10.46;100.00;98635.72;5073827;28;20553;-71
2022/10/05 00:19:51;;;;;;;10.50;6.00;;;;;;;10.40;100.00;98633.03;5073407;28;20320;-71
2022/10/05 00:22:20;;;;;;;7.57;5.47;;;;;;;10.43;100.00;98638.78;5073696;28;20205;-71
2022/10/05 00:24:50;;;;;;;6.17;5.30;;;;;;;10.39;100.00;98632.25;5073706;28;20205;-71
2022/10/05 00:27:20;;;;;;;7.80;5.67;;;;;;;10.39;100.00;98639.38;5073361;28;20562;-71
2022/10/05 00:29:48;;;;;;;6.77;5.50;;;;;;;10.35;100.00;98630.19;5073539;28;20227;-71
2022/10/05 00:32:15;;;;;;;7.70;5.80;;;;;;;10.33;100.00;98619.75;5073265;28;20671;-71
2022/10/05 00:34:42;;;;;;;8.67;5.90;;;;;;;10.34;100.00;98617.91;5074020;28;20220;-71
2022/10/05 00:37:09;;;;;;;7.50;6.27;;;;;;;10.46;100.00;98618.97;5073591;28;20204;-71
2022/10/05 00:39:37;;;;;;;5.93;5.37;;;;;;;10.34;100.00;98617.91;5073495;28;20209;-71
2022/10/05 00:42:49;;;;;;;9.10;6.67;;;;;;;10.33;100.00;98625.06;5073510;28;20287;-71
2022/10/05 00:45:26;;;;;;;6.60;6.00;;;;;;;10.22;100.00;98631.00;5064603;28;20208;-71
2022/10/05 00:48:20;;;;;;;6.97;6.23;;;;;;;10.17;100.00;98638.75;5073432;28;20199;-71
2022/10/05 00:50:49;;;;;;;7.43;5.80;;;;;;;10.16;100.00;98620.34;5073083;28;20703;-71
2022/10/05 00:53:43;;;;;;;6.73;6.13;;;;;;;10.12;100.00;98627.91;5073069;28;20228;-71
2022/10/05 00:56:27;;;;;;;7.50;6.57;;;;;;;10.18;100.00;98621.00;5073047;28;20205;-71
2022/10/05 00:59:14;;;;;;;7.80;6.13;;;;;;;10.09;100.00;98617.69;5072259;28;20189;-71
2022/10/05 01:01:55;;;;;;;6.80;6.10;;;;;;;10.06;100.00;98620.78;5073339;28;20232;-71
2022/10/05 01:04:35;;;;;;;9.13;6.23;;;;;;;10.11;100.00;98617.50;5073325;28;20184;-71
2022/10/05 01:07:43;;;;;;;7.43;6.67;;;;;;;10.16;100.00;98625.66;5073333;28;20192;-71
2022/10/05 01:10:25;;;;;;;7.80;6.43;;;;;;;10.06;100.00;98634.06;5072941;28;20726;-71
2022/10/05 01:13:10;;;;;;;7.43;6.40;;;;;;;9.99;100.00;98625.19;5072671;28;20544;-71
2022/10/05 01:15:44;;;;;;;8.47;6.03;;;;;;;9.94;100.00;98616.19;5073174;28;20212;-71
2022/10/05 01:18:19;;;;;;;6.90;6.20;;;;;;;9.86;100.00;98619.06;5072832;28;20632;-71
2022/10/05 01:20:54;;;;;;;7.00;6.23;;;;;;;9.85;100.00;98623.53;5073632;28;20224;-71
2022/10/05 01:23:53;;;;;;;7.77;6.30;;;;;;;9.84;100.00;98621.06;5072827;28;20220;-71
2022/10/05 01:26:34;;;;;;;6.90;5.87;;;;;;;9.84;100.00;98624.56;5073660;28;20184;-71
2022/10/05 01:29:28;;;;;;;8.43;6.13;;;;;;;9.83;100.00;98614.13;5073127;28;20196;-71
2022/10/05 01:45:24;;;;;;;7.00;5.93;;;;;;;9.82;100.00;98613.31;5072976;28;20261;-71
2022/10/05 01:47:58;;;;;;;9.60;6.00;;;;;;;9.77;100.00;98613.09;5072643;28;20211;-71
2022/10/05 01:50:44;;;;;;;6.50;5.90;;;;;;;9.83;100.00;98606.97;5072939;28;20224;-71
2022/10/05 01:53:34;;;;;;;7.23;6.07;;;;;;;9.84;100.00;98597.19;5072926;28;20189;-71
2022/10/05 01:56:04;;;;;;;6.80;6.03;;;;;;;9.84;100.00;98597.19;5073350;28;20304;-71
2022/10/05 01:58:39;;;;;;;6.30;5.67;;;;;;;9.86;100.00;98587.19;5076340;28;20205;-71
2022/10/05 02:01:09;;;;;;;9.07;5.63;;;;;;;9.83;100.00;98592.91;5076171;28;20234;-70
2022/10/05 02:03:41;;;;;;;6.17;5.60;;;;;;;9.82;100.00;98591.25;5076287;28;20302;-71
2022/10/05 02:06:22;;;;;;;6.20;5.27;;;;;;;9.76;100.00;98592.03;5076495;28;20193;-71
2022/10/05 02:09:01;;;;;;;6.23;5.63;;;;;;;9.75;100.00;98591.25;5075095;28;20189;-71
2022/10/05 02:11:27;;;;;;;5.83;5.30;;;;;;;9.67;100.00;98598.56;5074671;28;20230;-70
2022/10/05 02:13:59;;;;;;;8.43;6.27;;;;;;;9.69;100.00;98596.53;5076088;28;20211;-71
2022/10/05 02:16:29;;;;;;;7.73;5.70;;;;;;;9.65;100.00;98600.59;5075685;28;20625;-71
2022/10/05 02:19:04;;;;;;;6.70;6.07;;;;;;;9.66;100.00;98592.44;5074533;28;20212;-71
2022/10/05 02:21:34;;;;;;;7.63;6.03;;;;;;;9.62;100.00;98593.03;5075905;28;20231;-71
2022/10/05 02:24:07;;;;;;;7.10;6.07;;;;;;;9.56;100.00;98584.03;5074701;28;20208;-71
2022/10/05 02:26:37;;;;;;;6.67;5.80;;;;;;;9.55;100.00;98576.28;5074736;28;20192;-71
2022/10/05 02:29:08;;;;;;;6.53;5.93;;;;;;;9.58;100.00;98573.22;5074717;28;20208;-71
2022/10/05 02:32:01;;;;;;;7.97;5.80;;;;;;;9.56;100.00;98580.56;5074647;28;20224;-71
2022/10/05 02:34:31;;;;;;;7.60;6.00;;;;;;;9.54;100.00;98574.63;5075530;28;20189;-71
2022/10/05 02:37:19;;;;;;;7.93;5.70;;;;;;;9.49;100.00;98577.06;5075387;28;20542;-71
2022/10/05 02:39:54;;;;;;;7.10;5.60;;;;;;;9.44;100.00;98569.72;5075816;28;20229;-71
2022/10/05 02:42:32;;;;;;;6.60;6.00;;;;;;;9.45;100.00;98576.66;5075162;28;20682;-71
2022/10/05 02:45:04;;;;;;;6.27;5.43;;;;;;;9.40;100.00;98570.28;5074934;28;20192;-71
2022/10/05 02:47:35;;;;;;;6.77;5.50;;;;;;;9.38;100.00;98561.72;5075524;28;20530;-71
2022/10/05 02:50:26;;;;;;;8.73;5.60;;;;;;;9.36;100.00;98564.56;5075090;28;20707;-71
2022/10/05 02:53:05;;;;;;;6.60;5.40;;;;;;;9.32;100.00;98581.09;5075063;28;20197;-71
2022/10/05 02:55:34;;;;;;;5.87;5.30;;;;;;;9.42;100.00;98585.00;5075771;28;20244;-71
2022/10/05 02:58:14;;;;;;;6.80;5.23;;;;;;;9.39;100.00;98577.44;5075241;28;20235;-71
2022/10/05 03:01:00;;;;;;;6.73;5.20;;;;;;;9.34;100.00;98579.06;5074749;28;20233;-71
2022/10/05 03:03:35;;;;;;;8.80;5.47;;;;;;;9.34;100.00;98582.53;5075638;28;20244;-71
2022/10/05 03:06:12;;;;;;;5.93;5.27;;;;;;;9.31;100.00;98584.75;5075018;28;20189;-71
2022/10/05 03:08:46;;;;;;;6.00;5.23;;;;;;;9.35;100.00;98593.94;5074196;28;20196;-71
2022/10/05 03:11:30;;;;;;;6.20;5.60;;;;;;;9.23;100.00;98592.91;5074844;28;20228;-71
2022/10/05 03:14:12;;;;;;;5.90;5.37;;;;;;;9.26;100.00;98584.53;5074481;28;20534;-71
2022/10/05 03:17:03;;;;;;;6.27;5.07;;;;;;;9.28;100.00;98585.16;5074446;28;20569;-71
2022/10/05 03:19:29;;;;;;;7.13;5.63;;;;;;;9.27;100.00;98583.50;5074186;28;20223;-71
2022/10/05 03:22:05;;;;;;;6.43;4.87;;;;;;;9.22;100.00;98575.31;5074708;28;20308;-70
2022/10/05 03:24:56;;;;;;;6.13;5.53;;;;;;;9.21;100.00;98579.00;5074761;28;20226;-71
2022/10/05 03:27:31;;;;;;;6.80;5.27;;;;;;;9.20;100.00;98567.59;5074710;28;20211;-70
2022/10/05 03:30:06;;;;;;;7.80;5.57;;;;;;;9.21;100.00;98571.88;5074464;28;20314;-71
2022/10/05 03:32:58;;;;;;;5.80;5.00;;;;;;;9.18;100.00;98563.47;5074482;28;20188;-71
2022/10/05 03:35:51;;;;;;;8.03;5.83;;;;;;;9.18;100.00;98563.47;5074480;28;20240;-71
2022/10/05 03:38:46;;;;;;;7.97;5.80;;;;;;;9.23;100.00;98553.09;5075162;28;20246;-71
2022/10/05 03:41:36;;;;;;;7.27;5.87;;;;;;;9.21;100.00;98555.13;5073216;28;20228;-71
2022/10/05 03:44:18;;;;;;;7.27;6.00;;;;;;;9.22;100.00;98557.59;5074350;28;20534;-71
2022/10/05 03:47:12;;;;;;;7.03;5.80;;;;;;;9.21;100.00;98541.84;5074682;28;20185;-71
2022/10/05 03:50:16;;;;;;;9.83;5.70;;;;;;;9.18;100.00;98548.38;5074457;28;20204;-71
2022/10/05 03:52:48;;;;;;;6.17;5.63;;;;;;;9.15;100.00;98545.31;5073736;28;20219;-71
2022/10/05 03:55:24;;;;;;;6.83;5.27;;;;;;;9.14;100.00;98539.19;5073737;28;20208;-71
2022/10/05 03:57:54;;;;;;;5.83;4.57;;;;;;;9.11;100.00;98539.59;5074015;28;20211;-71
2022/10/05 04:00:23;;;;;;;8.10;5.00;;;;;;;9.14;100.00;98538.38;5074375;28;20228;-71
2022/10/05 04:02:59;;;;;;;6.07;5.20;;;;;;;9.13;100.00;98537.53;5073726;28;20209;-71
2022/10/05 04:05:33;;;;;;;6.87;5.37;;;;;;;9.12;100.00;98527.97;5072367;28;20644;-71
2022/10/05 04:08:10;;;;;;;9.27;5.77;;;;;;;9.09;100.00;98536.31;5073752;28;20194;-71
2022/10/05 04:10:46;;;;;;;8.43;5.47;;;;;;;9.09;100.00;98532.84;5073405;28;20297;-71
2022/10/05 04:13:17;;;;;;;6.30;5.70;;;;;;;9.07;100.00;98532.22;5073724;28;20193;-71
2022/10/05 04:15:52;;;;;;;6.70;6.00;;;;;;;9.04;100.00;98530.78;5073317;28;20228;-71
2022/10/05 04:18:42;;;;;;;8.40;5.90;;;;;;;9.06;100.00;98530.59;5071960;28;20192;-70
2022/10/05 04:21:18;;;;;;;7.83;6.00;;;;;;;9.05;100.00;98526.31;5073058;28;20231;-71
2022/10/05 04:23:55;;;;;;;9.27;6.43;;;;;;;9.01;100.00;98533.00;5072224;28;20199;-71
2022/10/05 04:26:48;;;;;;;8.83;6.20;;;;;;;8.97;100.00;98523.81;5073129;28;20275;-71
2022/10/05 04:29:21;;;;;;;8.50;6.63;;;;;;;8.98;100.00;98533.41;5071955;28;20200;-71
2022/10/05 04:32:23;;;;;;;8.97;6.30;;;;;;;8.99;100.00;98522.59;5073228;28;20672;-71
2022/10/05 04:35:04;;;;;;;7.47;6.47;;;;;;;8.97;100.00;98521.97;5073411;28;20195;-71
2022/10/05 04:38:03;;;;;;;7.40;6.37;;;;;;;8.96;100.00;98524.84;5074118;28;20193;-71
2022/10/05 04:40:47;;;;;;;6.90;6.20;;;;;;;8.96;100.00;98517.69;5068337;28;20243;-71
2022/10/05 04:43:35;;;;;;;8.67;6.20;;;;;;;8.98;100.00;98522.78;5073061;28;20193;-71
2022/10/05 04:46:14;;;;;;;7.10;6.47;;;;;;;9.06;100.00;98525.28;5072717;28;20742;-71
2022/10/05 04:49:08;;;;;;;8.93;6.57;;;;;;;9.08;100.00;98528.53;5072983;28;20208;-71
2022/10/05 04:51:58;;;;;;;7.27;6.57;;;;;;;9.09;100.00;98524.91;5072885;28;20224;-71
2022/10/05 04:54:47;;;;;;;8.63;7.10;;;;;;;9.11;100.00;98528.97;5072641;28;20199;-71
2022/10/05 04:57:27;;;;;;;7.23;6.53;;;;;;;9.12;100.00;98533.25;5072956;28;20212;-71
2022/10/05 05:00:23;;;;;;;7.03;5.90;;;;;;;9.09;100.00;98543.47;5055647;28;20220;-71
2022/10/05 05:03:14;;;;;;;9.13;6.77;;;;;;;9.09;100.00;98541.59;5072767;28;20200;-71
2022/10/05 05:05:57;;;;;;;8.73;6.67;;;;;;;9.04;100.00;98549.34;5071500;28;20648;-71
2022/10/05 05:08:41;;;;;;;9.87;7.13;;;;;;;9.08;100.00;98555.88;5071596;28;20192;-71
2022/10/05 05:11:21;;;;;;;8.70;7.00;;;;;;;9.06;100.00;98557.09;5072770;28;20250;-70
2022/10/05 05:14:06;;;;;;;6.47;5.87;;;;;;;9.14;100.00;98562.25;5072868;28;20192;-71
2022/10/05 05:16:42;;;;;;;8.40;6.20;;;;;;;8.99;100.00;98570.34;5071252;28;20220;-71
2022/10/05 05:19:34;;;;;;;8.83;6.43;;;;;;;9.01;100.00;98573.59;5072421;28;20234;-71
2022/10/05 05:22:11;;;;;;;8.10;6.50;;;;;;;9.02;100.00;98569.13;5072218;28;20198;-71
2022/10/05 05:25:12;;;;;;;11.10;6.63;;;;;;;8.95;100.00;98569.09;5071066;28;20544;-71
2022/10/05 05:27:57;;;;;;;8.57;6.50;;;;;;;9.00;100.00;98576.47;5072630;28;20193;-71
2022/10/05 05:30:54;;;;;;;8.80;6.70;;;;;;;8.95;100.00;98568.25;5072957;28;20232;-71
2022/10/05 05:33:41;;;;;;;6.63;5.90;;;;;;;8.93;100.00;98575.59;5072064;28;20291;-71
2022/10/05 05:36:11;;;;;;;7.63;6.93;;;;;;;8.91;100.00;98577.63;5074979;28;20288;-71
2022/10/05 05:38:50;;;;;;;6.87;6.27;;;;;;;8.96;100.00;98583.16;5076395;28;20201;-71
2022/10/05 05:41:35;;;;;;;7.80;7.10;;;;;;;8.90;100.00;98582.09;5074565;28;20223;-71
2022/10/05 05:44:19;;;;;;;9.03;6.53;;;;;;;8.86;100.00;98587.97;5074774;28;20221;-71
2022/10/05 05:46:58;;;;;;;8.77;7.20;;;;;;;8.82;100.00;98592.88;5075784;28;20189;-71
2022/10/05 05:49:53;;;;;;;7.57;6.80;;;;;;;8.85;100.00;98581.88;5076023;28;20193;-71
2022/10/05 05:52:28;;;;;;;7.97;7.17;;;;;;;8.87;100.00;98585.13;5075737;28;20250;-71
2022/10/05 05:55:04;;;;;;;8.00;6.63;;;;;;;8.95;100.00;98592.13;5075993;28;20203;-71
2022/10/05 05:57:39;;;;;;;10.17;7.67;;;;;;;8.94;100.00;98595.78;5075834;28;20215;-73
2022/10/05 06:00:15;;;;;;;7.53;6.70;;;;;;;8.94;100.00;98596.63;5075555;28;20640;-72
2022/10/05 06:02:54;;;;;;;9.23;6.93;;;;;;;8.93;100.00;98599.47;5075767;28;20215;-70
2022/10/05 06:05:32;;;;;;;8.17;7.23;;;;;;;8.84;100.00;98601.47;5074400;28;20184;-71
2022/10/05 06:08:06;;;;;;;9.10;7.37;;;;;;;8.92;100.00;98603.13;5073873;28;20579;-71
2022/10/05 06:10:42;;;;;;;11.43;7.67;;;;;;;8.96;100.00;98610.50;5075228;28;20227;-71
2022/10/05 06:13:24;;;;;;;9.07;7.53;;;;;;;8.99;100.00;98610.09;5058038;28;20192;-71
2022/10/05 06:15:57;;;;;;;7.33;6.63;;;;;;;9.03;100.00;98615.84;5075116;28;20689;-71
2022/10/05 06:18:24;;;;;;;8.53;7.53;;;;;;;9.08;100.00;98618.72;5075425;28;20204;-71
2022/10/05 06:21:15;;;;;;;10.37;7.57;;;;;;;9.13;100.00;98619.78;5073975;28;20563;-71
2022/10/05 06:24:08;;;;;;;10.53;8.20;;;;;;;9.19;100.00;98634.09;5074877;28;20185;-71
2022/10/05 06:27:12;;;;;;;8.70;7.50;;;;;;;9.25;100.00;98635.97;5073573;28;20192;-71
2022/10/05 06:29:50;;;;;;;8.47;7.63;;;;;;;9.34;100.00;98635.59;5074788;28;20231;-71
2022/10/05 06:32:31;;;;;;;9.27;7.20;;;;;;;9.37;100.00;98639.69;5074420;28;20212;-71
2022/10/05 06:35:09;;;;;;;10.67;7.10;;;;;;;9.47;100.00;98638.31;5073402;28;20188;-71
2022/10/05 06:38:14;;;;;;;9.40;7.20;;;;;;;9.54;100.00;98643.63;5075187;28;20237;-70
2022/10/05 06:40:43;;;;;;;8.80;7.90;;;;;;;9.56;100.00;98638.97;5073865;28;20229;-70
2022/10/05 06:43:30;;;;;;;9.23;7.53;;;;;;;9.63;100.00;98639.78;5074379;28;20208;-70
2022/10/05 06:46:08;;;;;;;13.03;7.63;;;;;;;9.72;100.00;98649.22;5075373;28;20189;-69
2022/10/05 06:49:15;;;;;;;8.73;7.10;;;;;;;9.78;100.00;98645.78;5074597;28;20189;-70
2022/10/05 06:51:55;;;;;;;8.47;7.40;;;;;;;9.81;100.00;98654.16;5074944;28;20311;-70
2022/10/05 06:54:35;;;;;;;9.27;7.50;;;;;;;9.84;100.00;98653.78;5074796;28;20237;-70
2022/10/05 06:57:07;;;;;;;12.40;7.03;;;;;;;9.91;100.00;98651.94;5074730;28;20240;-69
2022/10/05 06:59:52;;;;;;;12.77;7.33;;;;;;;9.90;100.00;98657.44;5074451;28;20291;-69
2022/10/05 07:02:28;;;;;;;7.47;6.30;;;;;;;9.99;100.00;98653.59;5073178;28;20635;-70
2022/10/05 07:05:33;;;;;;;10.90;6.70;;;;;;;10.08;100.00;98652.41;5075020;28;20191;-70
2022/10/05 07:08:07;;;;;;;12.17;7.13;;;;;;;10.14;100.00;98654.28;5074598;28;20205;-69
2022/10/05 07:11:09;;;;;;;8.57;6.80;;;;;;;10.19;100.00;98651.84;5073546;28;20231;-69
2022/10/05 07:14:13;;;;;;;12.23;7.57;;;;;;;10.23;100.00;98658.41;5069319;28;20204;-69
2022/10/05 07:16:48;;;;;;;7.27;6.57;;;;;;;10.28;100.00;98663.91;5074544;28;20228;-69
2022/10/05 07:19:54;;;;;;;12.10;6.77;;;;;;;10.44;100.00;98660.84;5074630;28;20218;-69
2022/10/05 07:22:55;;;;;;;8.53;6.90;;;;;;;10.44;100.00;98663.53;5073957;28;20188;-69
2022/10/05 07:25:28;;;;;;;9.10;6.87;;;;;;;10.50;100.00;98670.69;5074410;28;20189;-69
2022/10/05 07:28:08;;;;;;;7.70;7.00;;;;;;;10.52;100.00;98658.00;5074698;28;20555;-69
2022/10/05 07:30:54;;;;;;;9.47;7.33;;;;;;;10.59;100.00;98658.84;5073969;28;20227;-69
2022/10/05 07:33:27;;;;;;;12.63;6.53;;;;;;;10.67;100.00;98669.25;5073809;28;20227;-69
2022/10/05 07:39:06;;;;;;;7.20;6.50;;;;;;;10.84;100.00;98663.34;5074298;28;20666;-69
2022/10/05 07:41:44;;;;;;;8.90;7.10;;;;;;;10.84;100.00;98667.81;5072918;28;20228;-69
2022/10/05 07:44:36;;;;;;;10.23;7.93;;;;;;;10.94;100.00;98668.22;5073898;28;20227;-70
2022/10/05 07:47:18;;;;;;;10.37;7.27;;;;;;;11.03;100.00;98662.50;5074000;28;20209;-69
2022/10/05 07:50:26;;;;;;;10.77;7.80;;;;;;;11.13;100.00;98680.72;5072885;28;20228;-70
2022/10/05 07:53:00;;;;;;;9.87;7.50;;;;;;;11.18;100.00;98678.25;5064950;28;20201;-70
2022/10/05 07:55:34;;;;;;;12.07;7.77;;;;;;;11.18;100.00;98680.06;5053861;28;20193;-70
2022/10/05 07:58:19;;;;;;;17.90;7.67;;;;;;;11.36;100.00;98677.56;5052591;28;20205;-70
2022/10/05 08:00:55;;;;;;;13.03;7.70;;;;;;;11.47;100.00;98671.59;5053725;28;20291;-70
2022/10/05 08:03:51;;;;;;;10.00;7.63;;;;;;;11.46;100.00;98681.44;5053829;28;20221;-69
2022/10/05 08:06:26;;;;;;;11.63;6.97;;;;;;;11.47;100.00;98688.41;5053585;28;20292;-69
2022/10/05 08:08:57;;;;;;;15.67;7.47;;;;;;;11.60;100.00;98683.06;5053412;28;20679;-70
2022/10/05 08:11:33;;;;;;;14.03;7.77;;;;;;;11.53;100.00;98674.25;5053590;28;20233;-70
2022/10/05 08:14:15;;;;;;;10.77;7.60;;;;;;;11.74;100.00;98686.50;5052416;28;20189;-69
2022/10/05 08:16:47;;;;;;;9.13;7.80;;;;;;;11.88;100.00;98677.41;5053996;28;20240;-69
2022/10/05 08:19:23;;;;;;;10.07;6.70;;;;;;;11.82;100.00;98678.28;5053333;28;20563;-69
2022/10/05 08:22:03;;;;;;;10.73;6.97;;;;;;;11.81;100.00;98680.13;5051878;28;20193;-69
2022/10/05 08:24:57;;;;;;;9.87;7.40;;;;;;;11.82;100.00;98679.09;5053459;28;20199;-69
2022/10/05 08:27:45;;;;;;;10.20;7.40;;;;;;;11.93;100.00;98681.09;5053080;28;20213;-69
2022/10/05 08:30:15;;;;;;;9.47;7.00;;;;;;;12.08;100.00;98670.94;5053009;28;20231;-70
2022/10/05 08:33:08;;;;;;;10.13;6.90;;;;;;;12.17;100.00;98677.66;5053501;28;20214;-70
2022/10/05 08:35:47;;;;;;;10.93;7.20;;;;;;;12.15;100.00;98663.75;5053398;28;20225;-69
2022/10/05 08:38:17;;;;;;;7.70;6.93;;;;;;;12.21;100.00;98672.75;5052024;28;20220;-70
2022/10/05 08:40:57;;;;;;;9.67;6.60;;;;;;;12.30;100.00;98666.13;5053318;28;20240;-70
2022/10/05 08:43:45;;;;;;;9.47;7.60;;;;;;;12.58;100.00;98663.88;5052593;28;20194;-70
2022/10/05 08:46:49;;;;;;;7.60;6.80;;;;;;;12.61;100.00;98658.91;5053260;28;20200;-70
2022/10/05 08:49:56;;;;;;;9.40;6.13;;;;;;;12.86;100.00;98656.25;5053312;28;20213;-70
2022/10/05 08:52:29;;;;;;;7.33;6.13;;;;;;;12.78;100.00;98654.69;5052752;28;20184;-70
2022/10/05 08:55:20;;;;;;;7.60;6.47;;;;;;;12.88;100.00;98659.53;5052936;28;20206;-70
2022/10/05 08:58:15;;;;;;;7.50;6.70;;;;;;;13.08;100.00;98666.38;5052944;28;20230;-70
2022/10/05 09:00:51;;;;;;;9.87;7.07;;;;;;;13.04;100.00;98654.50;5052778;28;20230;-70
2022/10/05 09:03:56;;;;;;;10.00;7.03;;;;;;;13.20;100.00;98648.56;5052787;28;20663;-70
2022/10/05 09:06:53;;;;;;;9.83;6.33;;;;;;;13.19;100.00;98651.44;5053814;28;20290;-70
2022/10/05 09:09:54;;;;;;;8.17;6.70;;;;;;;13.42;100.00;98651.59;5056861;28;20290;-70
2022/10/05 09:12:39;;;;;;;7.70;6.33;;;;;;;13.74;100.00;98651.25;5057547;28;20193;-70
2022/10/05 09:15:48;;;;;;;7.53;6.50;;;;;;;13.85;100.00;98653.16;5056820;28;20193;-70
2022/10/05 09:18:26;;;;;;;7.20;6.50;;;;;;;14.08;97.46;98641.75;5053398;28;20240;-70
2022/10/05 09:21:02;;;;;;;8.87;6.67;;;;;;;14.30;98.13;98642.91;5055147;28;20708;-70
2022/10/05 09:23:41;;;;;;;6.73;5.87;;;;;;;14.39;95.84;98639.66;5056564;28;20591;-70
2022/10/05 09:26:42;;;;;;;7.53;6.23;;;;;;;14.47;96.79;98642.00;5056715;28;20209;-70
2022/10/05 09:29:50;;;;;;;8.27;6.30;;;;;;;14.79;94.51;98629.16;5056528;28;20592;-70
2022/10/05 09:32:26;;;;;;;7.33;6.37;;;;;;;14.87;94.16;98636.84;5046357;28;20212;-70
2022/10/05 09:35:08;;;;;;;7.73;5.83;;;;;;;14.89;93.47;98637.44;5057371;28;20228;-70
2022/10/05 09:38:08;;;;;;;6.63;5.90;;;;;;;15.10;94.65;98637.66;5056200;28;20210;-70
2022/10/05 09:40:47;;;;;;;7.23;6.00;;;;;;;15.33;93.02;98629.59;5055214;28;20221;-70
2022/10/05 09:43:25;;;;;;;5.47;4.97;;;;;;;15.59;90.97;98628.31;5056411;28;20189;-70
2022/10/05 09:46:19;;;;;;;8.47;5.67;;;;;;;15.48;89.85;98624.63;5056382;28;20194;-70
2022/10/05 09:49:44;;;;;;;9.03;5.30;;;;;;;15.51;91.04;98621.44;5055241;28;20194;-70
2022/10/05 09:52:37;;;;;;;6.53;5.60;;;;;;;15.48;90.40;98621.13;5038645;28;20684;-68
2022/10/05 09:55:26;;;;;;;9.90;5.20;;;;;;;15.62;92.60;98617.13;5055341;28;20197;-68
2022/10/05 09:58:29;;;;;;;8.27;5.60;;;;;;;15.92;89.93;98610.47;5055980;28;20256;-71
2022/10/05 10:01:26;;;;;;;9.47;5.60;;;;;;;16.04;89.52;98613.13;5045223;28;20251;-71
2022/10/05 10:04:15;;;;;;;5.97;4.87;;;;;;;16.04;88.45;98605.06;5056530;28;20196;-71
2022/10/05 10:07:03;;;;;;;6.63;5.13;;;;;;;16.39;87.07;98598.47;5056481;28;20189;-71
2022/10/05 10:09:55;;;;;;;6.33;5.17;;;;;;;16.60;84.21;98597.78;5055659;28;20208;-73
2022/10/05 10:12:35;;;;;;;5.07;4.60;;;;;;;16.48;86.83;98589.00;5055341;28;20189;-71
2022/10/05 10:15:23;;;;;;;9.13;5.50;;;;;;;16.87;86.75;98588.00;5055741;28;20190;-71
2022/10/05 10:18:25;;;;;;;7.53;5.20;;;;;;;16.85;85.71;98584.75;5054280;28;20275;-72
2022/10/05 10:20:58;;;;;;;7.63;5.07;;;;;;;17.15;85.43;98582.50;5056011;28;20272;-71
2022/10/05 10:24:02;;;;;;;7.47;4.33;;;;;;;17.33;82.98;98582.19;5056245;28;20190;-71
2022/10/05 10:26:50;;;;;;;6.10;5.07;;;;;;;17.33;83.74;98576.03;5055256;28;20216;-70
2022/10/05 10:29:40;;;;;;;5.40;4.23;;;;;;;17.28;83.07;98576.75;5054937;28;20688;-71
2022/10/05 10:32:13;;;;;;;5.10;4.60;;;;;;;17.52;83.05;98574.69;5056345;28;20186;-71
2022/10/05 10:34:57;;;;;;;9.80;5.20;;;;;;;17.40;82.36;98569.44;5055260;28;20192;-71
2022/10/05 10:37:37;;;;;;;7.40;4.90;;;;;;;17.71;82.24;98570.59;5054457;28;20217;-71
2022/10/05 10:40:28;;;;;;;4.50;3.80;;;;;;;17.96;81.97;98565.50;5055209;28;20229;-71
2022/10/05 10:43:03;;;;;;;5.70;4.10;;;;;;;18.13;80.61;98561.63;5054097;28;20200;-71
2022/10/05 10:45:42;;;;;;;5.70;4.47;;;;;;;18.18;80.26;98552.81;5055329;28;20295;-70
2022/10/05 10:48:50;;;;;;;8.83;4.20;;;;;;;18.24;80.22;98557.97;5055313;28;20205;-71
2022/10/05 10:51:51;;;;;;;5.77;4.07;;;;;;;18.45;79.10;98554.41;5051164;28;20232;-71
2022/10/05 10:54:31;;;;;;;5.07;3.83;;;;;;;18.65;80.27;98549.22;5053543;28;20667;-71
2022/10/05 10:57:23;;;;;;;6.53;3.60;;;;;;;18.77;79.18;98549.03;5054852;28;20213;-70
2022/10/05 11:00:17;;;;;;;4.10;3.70;;;;;;;18.82;78.52;98547.16;5054796;28;20251;-69
2022/10/05 11:03:17;;;;;;;7.73;3.67;;;;;;;19.02;77.69;98541.91;5054608;28;20193;-69
2022/10/05 11:06:09;;;;;;;3.33;3.03;;;;;;;19.19;77.65;98529.03;5054558;28;20193;-70
2022/10/05 11:08:51;;;;;;;3.10;2.80;;;;;;;19.27;76.78;98523.19;5053570;28;20189;-70
2022/10/05 11:11:35;;;;;;;4.43;3.20;;;;;;;19.28;75.42;98526.69;5054243;28;20231;-69
2022/10/05 11:14:10;;;;;;;5.77;2.70;;;;;;;19.42;75.91;98531.31;5054945;28;20205;-70
2022/10/05 11:16:36;;;;;;;3.30;2.83;;;;;;;19.42;75.38;98525.94;5054195;28;20652;-69
2022/10/05 11:19:43;;;;;;;4.70;3.10;;;;;;;19.72;73.92;98527.94;5054559;28;20217;-69
2022/10/05 11:22:50;;;;;;;6.33;3.77;;;;;;;19.57;75.99;98517.09;5053689;28;20589;-70
2022/10/05 11:25:34;;;;;;;7.57;3.17;;;;;;;19.82;72.65;98503.69;5053640;28;20666;-72
2022/10/05 11:28:37;;;;;;;3.10;2.80;;;;;;;19.90;73.09;98503.13;5054285;28;20212;-72
2022/10/05 11:31:16;;;;;;;3.70;3.00;;;;;;;20.04;73.36;98495.34;5054180;28;20229;-72
2022/10/05 11:33:51;;;;;;;6.60;2.70;;;;;;;20.02;73.53;98497.50;5054220;28;20208;-72
2022/10/05 11:36:30;;;;;;;4.60;1.80;;;;;;;20.18;72.56;98491.06;5053837;28;20193;-70
2022/10/05 11:39:29;;;;;;;2.70;1.70;;;;;;;20.36;71.26;98485.94;5053840;28;20806;-70
2022/10/05 11:42:23;;;;;;;2.17;1.70;;;;;;;20.63;67.81;98478.34;5054641;28;20221;-69
2022/10/05 11:45:26;;;;;;;2.10;1.43;;;;;;;20.59;67.71;98485.38;5054208;28;20193;-69
2022/10/05 11:48:26;;;;;;;2.20;1.40;;;;;;;20.51;67.78;98485.09;5053798;28;20197;-70
2022/10/05 11:51:08;;;;;;;1.87;1.70;;;;;;;20.82;64.84;98483.97;5053893;28;20243;-70
2022/10/05 11:53:47;;;;;;;1.60;1.47;;;;;;;20.84;65.72;98479.13;5053914;28;20213;-70
2022/10/05 11:56:20;;;;;;;1.70;1.60;;;;;;;20.71;66.49;98472.38;5052741;28;20195;-70
2022/10/05 11:59:17;;;;;;;2.10;1.70;;;;;;;21.02;64.50;98478.56;5053729;28;20292;-71
2022/10/05 12:02:05;;;;;;;2.27;1.60;;;;;;;20.98;64.60;98477.47;5025703;28;20236;-70
2022/10/05 12:04:57;;;;;;;1.60;1.50;;;;;;;21.26;64.05;98471.44;5054432;28;20203;-70
2022/10/05 12:07:38;;;;;;;2.73;1.60;;;;;;;21.16;64.86;98471.47;5054360;28;20189;-70
2022/10/05 12:10:36;;;;;;;2.13;1.63;;;;;;;21.24;64.90;98476.28;5052985;28;20225;-70
2022/10/05 12:13:46;;;;;;;1.93;1.80;;;;;;;21.00;66.73;98470.72;5053384;28;20280;-70
2022/10/05 12:16:21;;;;;;;2.73;1.80;;;;;;;20.93;68.04;98464.00;5042805;28;20212;-71
2022/10/05 12:19:17;;;;;;;2.43;2.23;;;;;;;21.23;66.89;98472.78;5051882;28;20220;-70
2022/10/05 12:22:02;;;;;;;3.70;1.60;;;;;;;21.43;65.32;98469.19;5043627;28;20217;-70
2022/10/05 12:24:35;;;;;;;1.60;1.50;;;;;;;21.63;64.65;98460.94;5053550;28;20253;-70
2022/10/05 12:27:09;;;;;;;1.97;1.87;;;;;;;21.50;63.73;98459.66;5052995;28;20220;-71
2022/10/05 12:29:58;;;;;;;2.50;1.43;;;;;;;21.64;63.78;98459.84;5052681;28;20200;-70
2022/10/05 12:32:34;;;;;;;1.97;1.63;;;;;;;21.50;65.75;98451.56;5053127;28;20205;-71
2022/10/05 12:35:16;;;;;;;3.97;1.40;;;;;;;21.83;63.97;98452.72;5052821;28;20659;-71
2022/10/05 12:37:57;;;;;;;2.33;1.60;;;;;;;21.98;62.98;98445.28;5053006;28;20217;-71
2022/10/05 12:40:30;;;;;;;2.77;1.40;;;;;;;21.99;62.13;98438.81;5052306;28;20239;-71
2022/10/05 12:43:06;;;;;;;1.90;1.80;;;;;;;21.86;63.42;98444.03;5052974;28;20292;-70
2022/10/05 12:45:53;;;;;;;3.13;1.70;;;;;;;21.82;63.06;98434.88;5052463;28;20640;-71
2022/10/05 12:49:01;;;;;;;3.83;1.97;;;;;;;21.83;63.91;98434.59;5053080;28;20189;-71
2022/10/05 12:51:48;;;;;;;2.78;1.80;;;;;;;22.03;62.20;98431.72;5052470;28;20665;-70
2022/10/05 12:54:40;;;;;;;3.45;1.92;;;;;;;21.79;63.40;98432.75;5051341;28;20189;-70
2022/10/05 12:57:26;;;;;;;3.22;1.58;;;;;;;22.33;59.31;98438.78;5053059;28;20200;-70
2022/10/05 13:00:04;;;;;;;2.30;1.48;;;;;;;22.31;60.31;98430.13;5053146;28;20225;-71
2022/10/05 13:02:41;;;;;;;3.03;1.58;;;;;;;22.15;60.33;98428.66;5053041;28;20186;-70